Terminal Aerodrome Forecast
Issued by NWS

Home | Current Version | Previous Version | Text Only | Print | Product List | Glossary On
Versions: 1 2 3 4 5 6 7 8 9 10 11 12 13 14 15 16 17 18 19 20 21
022
FTUS42 KGSP 242321
TAFGMU
TAF
KGMU 242321Z 2500/2524 20005KT P6SM FEW050 SCT250
      TEMPO 2500/2504 BKN050
     FM250400 19005KT P6SM BKN050
     FM250900 20005KT 4SM BR VCSH BKN003
     FM251300 22008KT P6SM BKN010
     FM251500 24013G21KT P6SM BKN060
     FM251600 25014G24KT P6SM SCT200=

USA.gov is the U.S. government's official web portal to all federal, state and local government web resources and services.